sensor_id;sensor_type;location;lat;lon;timestamp;temperature;humidity
64209;DHT22;50527;52.414;13.226;2023-04-24T00:00:21;11.10;99.90
64209;DHT22;50527;52.414;13.226;2023-04-24T00:02:47;11.10;99.90
64209;DHT22;50527;52.414;13.226;2023-04-24T00:05:16;11.10;99.90
64209;DHT22;50527;52.414;13.226;2023-04-24T00:07:43;11.10;99.90
64209;DHT22;50527;52.414;13.226;2023-04-24T00:10:09;11.10;99.90
64209;DHT22;50527;52.414;13.226;2023-04-24T00:12:35;11.10;99.90
64209;DHT22;50527;52.414;13.226;2023-04-24T00:15:01;11.10;99.90
64209;DHT22;50527;52.414;13.226;2023-04-24T00:17:26;11.10;99.90
64209;DHT22;50527;52.414;13.226;2023-04-24T00:19:52;11.20;99.90
64209;DHT22;50527;52.414;13.226;2023-04-24T00:22:27;11.20;99.90
64209;DHT22;50527;52.414;13.226;2023-04-24T00:24:53;11.20;99.90
64209;DHT22;50527;52.414;13.226;2023-04-24T00:27:18;11.20;99.90
64209;DHT22;50527;52.414;13.226;2023-04-24T00:29:43;11.20;99.90
64209;DHT22;50527;52.414;13.226;2023-04-24T00:32:09;11.20;99.90
64209;DHT22;50527;52.414;13.226;2023-04-24T00:34:34;11.20;99.90
64209;DHT22;50527;52.414;13.226;2023-04-24T00:37:00;11.20;99.90
64209;DHT22;50527;52.414;13.226;2023-04-24T00:39:25;11.30;99.90
64209;DHT22;50527;52.414;13.226;2023-04-24T00:41:51;11.30;99.90
64209;DHT22;50527;52.414;13.226;2023-04-24T00:44:17;11.20;99.90
64209;DHT22;50527;52.414;13.226;2023-04-24T00:46:43;11.20;99.90
64209;DHT22;50527;52.414;13.226;2023-04-24T00:49:09;11.20;99.90
64209;DHT22;50527;52.414;13.226;2023-04-24T00:51:34;11.20;99.90
64209;DHT22;50527;52.414;13.226;2023-04-24T00:54:01;11.20;99.90
64209;DHT22;50527;52.414;13.226;2023-04-24T00:56:28;11.20;99.90
64209;DHT22;50527;52.414;13.226;2023-04-24T00:58:53;11.20;99.90
64209;DHT22;50527;52.414;13.226;2023-04-24T01:01:20;11.20;99.90
64209;DHT22;50527;52.414;13.226;2023-04-24T01:03:46;11.30;99.90
64209;DHT22;50527;52.414;13.226;2023-04-24T01:06:12;11.30;99.90
64209;DHT22;50527;52.414;13.226;2023-04-24T01:08:38;11.30;99.90
64209;DHT22;50527;52.414;13.226;2023-04-24T01:11:05;11.40;99.90
64209;DHT22;50527;52.414;13.226;2023-04-24T01:13:32;11.40;99.90
64209;DHT22;50527;52.414;13.226;2023-04-24T01:15:57;11.40;99.90
64209;DHT22;50527;52.414;13.226;2023-04-24T01:18:23;11.40;99.90
64209;DHT22;50527;52.414;13.226;2023-04-24T01:20:51;11.40;99.90
64209;DHT22;50527;52.414;13.226;2023-04-24T01:23:18;11.30;99.90
64209;DHT22;50527;52.414;13.226;2023-04-24T01:25:43;11.30;99.90
64209;DHT22;50527;52.414;13.226;2023-04-24T01:28:09;11.30;99.90
64209;DHT22;50527;52.414;13.226;2023-04-24T01:30:35;11.30;99.90
64209;DHT22;50527;52.414;13.226;2023-04-24T01:33:01;11.20;99.90
64209;DHT22;50527;52.414;13.226;2023-04-24T01:35:26;11.10;99.90
64209;DHT22;50527;52.414;13.226;2023-04-24T01:37:52;11.10;99.90
64209;DHT22;50527;52.414;13.226;2023-04-24T01:40:17;11.10;99.90
64209;DHT22;50527;52.414;13.226;2023-04-24T01:42:43;11.10;99.90
64209;DHT22;50527;52.414;13.226;2023-04-24T01:45:10;11.10;99.90
64209;DHT22;50527;52.414;13.226;2023-04-24T01:47:36;11.10;99.90
64209;DHT22;50527;52.414;13.226;2023-04-24T01:50:02;11.00;99.90
64209;DHT22;50527;52.414;13.226;2023-04-24T01:52:28;11.00;99.90
64209;DHT22;50527;52.414;13.226;2023-04-24T01:54:56;11.00;99.90
64209;DHT22;50527;52.414;13.226;2023-04-24T01:57:22;11.00;99.90
64209;DHT22;50527;52.414;13.226;2023-04-24T01:59:47;11.00;99.90
64209;DHT22;50527;52.414;13.226;2023-04-24T02:02:13;11.00;99.90
64209;DHT22;50527;52.414;13.226;2023-04-24T02:04:39;11.00;99.90
64209;DHT22;50527;52.414;13.226;2023-04-24T02:07:05;10.90;99.90
64209;DHT22;50527;52.414;13.226;2023-04-24T02:09:30;10.90;99.90
64209;DHT22;50527;52.414;13.226;2023-04-24T02:11:55;10.90;99.90
64209;DHT22;50527;52.414;13.226;2023-04-24T02:14:21;10.90;99.90
64209;DHT22;50527;52.414;13.226;2023-04-24T02:16:47;10.90;99.90
64209;DHT22;50527;52.414;13.226;2023-04-24T02:19:12;10.80;99.90
64209;DHT22;50527;52.414;13.226;2023-04-24T02:21:38;10.80;99.90
64209;DHT22;50527;52.414;13.226;2023-04-24T02:24:03;10.80;99.90
64209;DHT22;50527;52.414;13.226;2023-04-24T02:26:29;10.80;99.90
64209;DHT22;50527;52.414;13.226;2023-04-24T02:28:57;10.80;99.90
64209;DHT22;50527;52.414;13.226;2023-04-24T02:31:22;10.80;99.90
64209;DHT22;50527;52.414;13.226;2023-04-24T02:33:48;10.70;99.90
64209;DHT22;50527;52.414;13.226;2023-04-24T02:36:13;10.70;99.90
64209;DHT22;50527;52.414;13.226;2023-04-24T02:38:39;10.80;99.90
64209;DHT22;50527;52.414;13.226;2023-04-24T02:41:04;10.80;99.90
64209;DHT22;50527;52.414;13.226;2023-04-24T02:43:32;10.80;99.90
64209;DHT22;50527;52.414;13.226;2023-04-24T02:45:57;10.80;99.90
64209;DHT22;50527;52.414;13.226;2023-04-24T02:48:23;10.80;99.90
64209;DHT22;50527;52.414;13.226;2023-04-24T02:50:49;10.80;99.90
64209;DHT22;50527;52.414;13.226;2023-04-24T02:53:15;10.90;99.90
64209;DHT22;50527;52.414;13.226;2023-04-24T02:55:41;10.90;99.90
64209;DHT22;50527;52.414;13.226;2023-04-24T02:58:06;10.80;99.90
64209;DHT22;50527;52.414;13.226;2023-04-24T03:00:32;10.80;99.90
64209;DHT22;50527;52.414;13.226;2023-04-24T03:02:58;10.90;99.90
64209;DHT22;50527;52.414;13.226;2023-04-24T03:05:23;10.90;99.90
64209;DHT22;50527;52.414;13.226;2023-04-24T03:07:49;10.90;99.90
64209;DHT22;50527;52.414;13.226;2023-04-24T03:10:14;10.90;99.90
64209;DHT22;50527;52.414;13.226;2023-04-24T03:12:40;11.00;99.90
64209;DHT22;50527;52.414;13.226;2023-04-24T03:15:06;10.90;99.90
64209;DHT22;50527;52.414;13.226;2023-04-24T03:17:32;11.00;99.90
64209;DHT22;50527;52.414;13.226;2023-04-24T03:19:57;11.00;99.90
64209;DHT22;50527;52.414;13.226;2023-04-24T03:22:23;11.00;99.90
64209;DHT22;50527;52.414;13.226;2023-04-24T03:24:48;11.00;99.90
64209;DHT22;50527;52.414;13.226;2023-04-24T03:27:14;11.10;99.90
64209;DHT22;50527;52.414;13.226;2023-04-24T03:29:39;11.10;99.90
64209;DHT22;50527;52.414;13.226;2023-04-24T03:32:05;11.10;99.90
64209;DHT22;50527;52.414;13.226;2023-04-24T03:34:31;11.10;99.90
64209;DHT22;50527;52.414;13.226;2023-04-24T03:36:56;11.20;99.90
64209;DHT22;50527;52.414;13.226;2023-04-24T03:39:22;11.20;99.90
64209;DHT22;50527;52.414;13.226;2023-04-24T03:41:47;11.20;99.90
64209;DHT22;50527;52.414;13.226;2023-04-24T03:44:13;11.20;99.90
64209;DHT22;50527;52.414;13.226;2023-04-24T03:46:38;11.20;99.90
64209;DHT22;50527;52.414;13.226;2023-04-24T03:49:03;11.20;99.90
64209;DHT22;50527;52.414;13.226;2023-04-24T03:51:29;11.20;99.90
64209;DHT22;50527;52.414;13.226;2023-04-24T03:53:56;11.30;99.90
64209;DHT22;50527;52.414;13.226;2023-04-24T03:56:21;11.30;99.90
64209;DHT22;50527;52.414;13.226;2023-04-24T03:58:46;11.30;99.90
64209;DHT22;50527;52.414;13.226;2023-04-24T04:01:12;11.30;99.90
64209;DHT22;50527;52.414;13.226;2023-04-24T04:03:38;11.30;99.90
64209;DHT22;50527;52.414;13.226;2023-04-24T04:06:04;11.30;99.90
64209;DHT22;50527;52.414;13.226;2023-04-24T04:08:29;11.30;99.90
64209;DHT22;50527;52.414;13.226;2023-04-24T04:10:55;11.30;99.90
64209;DHT22;50527;52.414;13.226;2023-04-24T04:13:21;11.30;99.90
64209;DHT22;50527;52.414;13.226;2023-04-24T04:15:46;11.30;99.90
64209;DHT22;50527;52.414;13.226;2023-04-24T04:18:11;11.20;99.90
64209;DHT22;50527;52.414;13.226;2023-04-24T04:20:37;11.30;99.90
64209;DHT22;50527;52.414;13.226;2023-04-24T04:23:02;11.20;99.90
64209;DHT22;50527;52.414;13.226;2023-04-24T04:25:28;11.20;99.90
64209;DHT22;50527;52.414;13.226;2023-04-24T04:27:54;11.20;99.90
64209;DHT22;50527;52.414;13.226;2023-04-24T04:30:20;11.20;99.90
64209;DHT22;50527;52.414;13.226;2023-04-24T04:32:46;11.20;99.90
64209;DHT22;50527;52.414;13.226;2023-04-24T04:35:11;11.10;99.90
64209;DHT22;50527;52.414;13.226;2023-04-24T04:37:37;11.10;99.90
64209;DHT22;50527;52.414;13.226;2023-04-24T04:40:04;11.20;99.90
64209;DHT22;50527;52.414;13.226;2023-04-24T04:42:32;11.20;99.90
64209;DHT22;50527;52.414;13.226;2023-04-24T04:44:59;11.20;99.90
64209;DHT22;50527;52.414;13.226;2023-04-24T04:47:26;11.30;99.90
64209;DHT22;50527;52.414;13.226;2023-04-24T04:49:53;11.30;99.90
64209;DHT22;50527;52.414;13.226;2023-04-24T04:52:19;11.40;99.90
64209;DHT22;50527;52.414;13.226;2023-04-24T04:54:44;11.40;99.90
64209;DHT22;50527;52.414;13.226;2023-04-24T04:57:11;11.50;99.90
64209;DHT22;50527;52.414;13.226;2023-04-24T04:59:37;11.60;99.90
64209;DHT22;50527;52.414;13.226;2023-04-24T05:02:02;11.70;99.90
64209;DHT22;50527;52.414;13.226;2023-04-24T05:04:28;11.70;99.90
64209;DHT22;50527;52.414;13.226;2023-04-24T05:06:53;11.80;99.90
64209;DHT22;50527;52.414;13.226;2023-04-24T05:09:19;11.90;99.90
64209;DHT22;50527;52.414;13.226;2023-04-24T05:11:44;12.00;99.90
64209;DHT22;50527;52.414;13.226;2023-04-24T05:14:10;12.00;99.90
64209;DHT22;50527;52.414;13.226;2023-04-24T05:16:37;12.10;99.90
64209;DHT22;50527;52.414;13.226;2023-04-24T05:19:03;12.30;99.90
64209;DHT22;50527;52.414;13.226;2023-04-24T05:21:29;12.50;99.90
64209;DHT22;50527;52.414;13.226;2023-04-24T05:23:54;12.60;99.90
64209;DHT22;50527;52.414;13.226;2023-04-24T05:26:20;12.90;99.90
64209;DHT22;50527;52.414;13.226;2023-04-24T05:28:45;13.00;99.90
64209;DHT22;50527;52.414;13.226;2023-04-24T05:31:11;13.30;99.90
64209;DHT22;50527;52.414;13.226;2023-04-24T05:33:37;13.70;99.90
64209;DHT22;50527;52.414;13.226;2023-04-24T05:36:03;14.40;98.90
64209;DHT22;50527;52.414;13.226;2023-04-24T05:38:30;14.60;95.50
64209;DHT22;50527;52.414;13.226;2023-04-24T05:40:56;14.40;97.30
64209;DHT22;50527;52.414;13.226;2023-04-24T05:43:21;14.20;96.80
64209;DHT22;50527;52.414;13.226;2023-04-24T05:45:47;13.90;97.80
64209;DHT22;50527;52.414;13.226;2023-04-24T05:48:12;14.10;97.90
64209;DHT22;50527;52.414;13.226;2023-04-24T05:50:38;14.40;97.50
64209;DHT22;50527;52.414;13.226;2023-04-24T05:53:04;15.10;95.50
64209;DHT22;50527;52.414;13.226;2023-04-24T05:55:30;15.30;92.50
64209;DHT22;50527;52.414;13.226;2023-04-24T05:57:56;15.50;92.10
64209;DHT22;50527;52.414;13.226;2023-04-24T06:00:21;15.50;91.80
64209;DHT22;50527;52.414;13.226;2023-04-24T06:02:47;16.10;90.10
64209;DHT22;50527;52.414;13.226;2023-04-24T06:05:12;16.60;87.50
64209;DHT22;50527;52.414;13.226;2023-04-24T06:07:38;16.20;86.20
64209;DHT22;50527;52.414;13.226;2023-04-24T06:10:04;16.20;85.10
64209;DHT22;50527;52.414;13.226;2023-04-24T06:12:29;17.10;83.30
64209;DHT22;50527;52.414;13.226;2023-04-24T06:14:55;18.40;76.60
64209;DHT22;50527;52.414;13.226;2023-04-24T06:17:21;20.90;67.70
64209;DHT22;50527;52.414;13.226;2023-04-24T06:19:46;23.10;60.30
64209;DHT22;50527;52.414;13.226;2023-04-24T06:22:12;26.20;54.00
64209;DHT22;50527;52.414;13.226;2023-04-24T06:24:39;27.80;49.10
64209;DHT22;50527;52.414;13.226;2023-04-24T06:27:05;26.60;49.60
64209;DHT22;50527;52.414;13.226;2023-04-24T06:29:31;24.70;51.40
64209;DHT22;50527;52.414;13.226;2023-04-24T06:31:56;22.70;53.60
64209;DHT22;50527;52.414;13.226;2023-04-24T06:34:21;20.60;57.10
64209;DHT22;50527;52.414;13.226;2023-04-24T06:36:47;19.60;61.10
64209;DHT22;50527;52.414;13.226;2023-04-24T06:39:13;18.90;63.60
64209;DHT22;50527;52.414;13.226;2023-04-24T06:41:38;18.50;67.50
64209;DHT22;50527;52.414;13.226;2023-04-24T06:44:05;17.90;67.50
64209;DHT22;50527;52.414;13.226;2023-04-24T06:46:30;18.00;69.60
64209;DHT22;50527;52.414;13.226;2023-04-24T06:48:56;18.40;68.40
64209;DHT22;50527;52.414;13.226;2023-04-24T06:51:23;18.60;67.40
64209;DHT22;50527;52.414;13.226;2023-04-24T06:53:48;18.40;68.60
64209;DHT22;50527;52.414;13.226;2023-04-24T06:56:15;18.00;71.10
64209;DHT22;50527;52.414;13.226;2023-04-24T06:58:40;18.40;70.20
64209;DHT22;50527;52.414;13.226;2023-04-24T07:01:06;18.40;69.50
64209;DHT22;50527;52.414;13.226;2023-04-24T07:03:32;17.90;71.40
64209;DHT22;50527;52.414;13.226;2023-04-24T07:05:57;18.10;73.20
64209;DHT22;50527;52.414;13.226;2023-04-24T07:08:23;20.50;63.60
64209;DHT22;50527;52.414;13.226;2023-04-24T07:10:49;21.80;56.00
64209;DHT22;50527;52.414;13.226;2023-04-24T07:13:16;22.50;54.40
64209;DHT22;50527;52.414;13.226;2023-04-24T07:15:41;22.40;54.60
64209;DHT22;50527;52.414;13.226;2023-04-24T07:18:07;21.70;55.60
64209;DHT22;50527;52.414;13.226;2023-04-24T07:20:32;20.70;56.70
64209;DHT22;50527;52.414;13.226;2023-04-24T07:22:58;20.00;59.00
64209;DHT22;50527;52.414;13.226;2023-04-24T07:25:24;20.10;60.60
64209;DHT22;50527;52.414;13.226;2023-04-24T07:27:49;19.80;61.80
64209;DHT22;50527;52.414;13.226;2023-04-24T07:30:15;20.00;60.10
64209;DHT22;50527;52.414;13.226;2023-04-24T07:32:40;20.00;60.80
64209;DHT22;50527;52.414;13.226;2023-04-24T07:35:06;23.20;54.80
64209;DHT22;50527;52.414;13.226;2023-04-24T07:37:31;24.80;50.10
64209;DHT22;50527;52.414;13.226;2023-04-24T07:39:57;23.00;49.70
64209;DHT22;50527;52.414;13.226;2023-04-24T07:42:22;21.70;53.50
64209;DHT22;50527;52.414;13.226;2023-04-24T07:44:48;20.90;55.80
64209;DHT22;50527;52.414;13.226;2023-04-24T07:47:14;20.80;55.70
64209;DHT22;50527;52.414;13.226;2023-04-24T07:49:41;20.80;55.70
64209;DHT22;50527;52.414;13.226;2023-04-24T07:52:07;21.50;55.90
64209;DHT22;50527;52.414;13.226;2023-04-24T07:54:33;23.50;52.30
64209;DHT22;50527;52.414;13.226;2023-04-24T07:56:58;25.60;47.90
64209;DHT22;50527;52.414;13.226;2023-04-24T07:59:24;28.10;44.70
64209;DHT22;50527;52.414;13.226;2023-04-24T08:01:49;28.60;42.80
64209;DHT22;50527;52.414;13.226;2023-04-24T08:04:15;27.90;43.20
64209;DHT22;50527;52.414;13.226;2023-04-24T08:06:40;26.60;43.10
64209;DHT22;50527;52.414;13.226;2023-04-24T08:09:06;25.00;43.80
64209;DHT22;50527;52.414;13.226;2023-04-24T08:11:32;23.80;45.70
64209;DHT22;50527;52.414;13.226;2023-04-24T08:13:58;22.80;49.20
64209;DHT22;50527;52.414;13.226;2023-04-24T08:16:23;23.20;48.90
64209;DHT22;50527;52.414;13.226;2023-04-24T08:18:49;22.60;48.40
64209;DHT22;50527;52.414;13.226;2023-04-24T08:21:15;21.40;50.40
64209;DHT22;50527;52.414;13.226;2023-04-24T08:23:42;20.40;52.40
64209;DHT22;50527;52.414;13.226;2023-04-24T08:26:08;19.90;55.10
64209;DHT22;50527;52.414;13.226;2023-04-24T08:28:33;19.80;55.00
64209;DHT22;50527;52.414;13.226;2023-04-24T08:30:59;19.80;54.50
64209;DHT22;50527;52.414;13.226;2023-04-24T08:33:24;19.60;55.30
64209;DHT22;50527;52.414;13.226;2023-04-24T08:35:50;19.60;57.00
64209;DHT22;50527;52.414;13.226;2023-04-24T08:38:16;19.40;55.80
64209;DHT22;50527;52.414;13.226;2023-04-24T08:40:42;19.00;56.80
64209;DHT22;50527;52.414;13.226;2023-04-24T08:43:08;19.00;57.80
64209;DHT22;50527;52.414;13.226;2023-04-24T08:45:35;19.20;58.40
64209;DHT22;50527;52.414;13.226;2023-04-24T08:48:02;18.90;58.90
64209;DHT22;50527;52.414;13.226;2023-04-24T08:50:29;18.90;59.80
64209;DHT22;50527;52.414;13.226;2023-04-24T08:52:55;18.60;59.80
64209;DHT22;50527;52.414;13.226;2023-04-24T08:55:23;18.40;61.90
64209;DHT22;50527;52.414;13.226;2023-04-24T08:57:52;18.30;62.40
64209;DHT22;50527;52.414;13.226;2023-04-24T09:00:21;18.30;61.00
64209;DHT22;50527;52.414;13.226;2023-04-24T09:02:49;18.30;62.70
64209;DHT22;50527;52.414;13.226;2023-04-24T09:05:16;18.10;63.70
64209;DHT22;50527;52.414;13.226;2023-04-24T09:07:45;17.90;63.90
64209;DHT22;50527;52.414;13.226;2023-04-24T09:10:13;17.90;64.70
64209;DHT22;50527;52.414;13.226;2023-04-24T09:12:38;17.90;65.00
64209;DHT22;50527;52.414;13.226;2023-04-24T09:15:04;18.00;66.00
64209;DHT22;50527;52.414;13.226;2023-04-24T09:17:33;18.10;63.10
64209;DHT22;50527;52.414;13.226;2023-04-24T09:19:59;18.30;63.00
64209;DHT22;50527;52.414;13.226;2023-04-24T09:22:25;18.80;60.30
64209;DHT22;50527;52.414;13.226;2023-04-24T09:25:03;19.50;60.40
64209;DHT22;50527;52.414;13.226;2023-04-24T09:27:31;19.90;59.20
64209;DHT22;50527;52.414;13.226;2023-04-24T09:29:57;19.60;57.00
64209;DHT22;50527;52.414;13.226;2023-04-24T09:32:23;19.00;58.80
64209;DHT22;50527;52.414;13.226;2023-04-24T09:35:08;18.70;60.40
64209;DHT22;50527;52.414;13.226;2023-04-24T09:37:42;18.60;61.20
64209;DHT22;50527;52.414;13.226;2023-04-24T09:40:14;18.80;61.50
64209;DHT22;50527;52.414;13.226;2023-04-24T09:43:01;18.80;60.40
64209;DHT22;50527;52.414;13.226;2023-04-24T09:45:28;18.70;60.20
64209;DHT22;50527;52.414;13.226;2023-04-24T09:48:00;18.90;60.90
64209;DHT22;50527;52.414;13.226;2023-04-24T09:50:26;18.90;59.40
64209;DHT22;50527;52.414;13.226;2023-04-24T09:53:03;19.10;59.50
64209;DHT22;50527;52.414;13.226;2023-04-24T09:55:29;20.00;57.20
64209;DHT22;50527;52.414;13.226;2023-04-24T09:58:00;20.10;56.80
64209;DHT22;50527;52.414;13.226;2023-04-24T10:00:31;20.60;57.10
64209;DHT22;50527;52.414;13.226;2023-04-24T10:03:03;20.40;55.90
64209;DHT22;50527;52.414;13.226;2023-04-24T10:05:34;20.00;55.80
64209;DHT22;50527;52.414;13.226;2023-04-24T10:08:02;19.10;58.00
64209;DHT22;50527;52.414;13.226;2023-04-24T10:10:29;18.90;59.80
64209;DHT22;50527;52.414;13.226;2023-04-24T10:12:55;18.80;60.40
64209;DHT22;50527;52.414;13.226;2023-04-24T10:15:21;18.80;60.90
64209;DHT22;50527;52.414;13.226;2023-04-24T10:17:48;18.70;61.40
64209;DHT22;50527;52.414;13.226;2023-04-24T10:20:22;18.40;61.10
64209;DHT22;50527;52.414;13.226;2023-04-24T10:22:49;17.90;63.70
64209;DHT22;50527;52.414;13.226;2023-04-24T10:25:20;17.70;63.10
64209;DHT22;50527;52.414;13.226;2023-04-24T10:27:46;17.40;63.20
64209;DHT22;50527;52.414;13.226;2023-04-24T10:30:13;17.10;64.30
64209;DHT22;50527;52.414;13.226;2023-04-24T10:32:39;16.90;66.30
64209;DHT22;50527;52.414;13.226;2023-04-24T10:35:06;16.90;66.00
64209;DHT22;50527;52.414;13.226;2023-04-24T10:37:37;16.70;66.90
64209;DHT22;50527;52.414;13.226;2023-04-24T10:40:04;16.60;67.50
64209;DHT22;50527;52.414;13.226;2023-04-24T10:42:30;16.60;68.40
64209;DHT22;50527;52.414;13.226;2023-04-24T10:44:56;16.70;68.80
64209;DHT22;50527;52.414;13.226;2023-04-24T10:47:23;16.90;67.80
64209;DHT22;50527;52.414;13.226;2023-04-24T10:49:50;17.60;70.50
64209;DHT22;50527;52.414;13.226;2023-04-24T10:52:16;18.30;66.00
64209;DHT22;50527;52.414;13.226;2023-04-24T10:54:46;18.70;64.00
64209;DHT22;50527;52.414;13.226;2023-04-24T11:00:16;19.10;60.10
64209;DHT22;50527;52.414;13.226;2023-04-24T11:02:45;18.60;59.80
64209;DHT22;50527;52.414;13.226;2023-04-24T11:05:18;18.50;60.80
64209;DHT22;50527;52.414;13.226;2023-04-24T11:08:12;18.50;61.10
64209;DHT22;50527;52.414;13.226;2023-04-24T11:10:45;18.50;63.20
64209;DHT22;50527;52.414;13.226;2023-04-24T11:13:14;18.20;60.70
64209;DHT22;50527;52.414;13.226;2023-04-24T11:15:41;17.90;61.20
64209;DHT22;50527;52.414;13.226;2023-04-24T11:18:13;17.80;63.00
64209;DHT22;50527;52.414;13.226;2023-04-24T11:20:42;17.80;62.70
64209;DHT22;50527;52.414;13.226;2023-04-24T11:23:08;17.90;63.50
64209;DHT22;50527;52.414;13.226;2023-04-24T11:25:35;18.10;64.70
64209;DHT22;50527;52.414;13.226;2023-04-24T11:28:05;17.90;66.20
64209;DHT22;50527;52.414;13.226;2023-04-24T11:30:32;17.80;66.90
64209;DHT22;50527;52.414;13.226;2023-04-24T11:33:05;17.70;68.10
64209;DHT22;50527;52.414;13.226;2023-04-24T11:35:35;17.50;69.30
64209;DHT22;50527;52.414;13.226;2023-04-24T11:38:04;17.30;70.90
64209;DHT22;50527;52.414;13.226;2023-04-24T11:40:30;17.20;72.60
64209;DHT22;50527;52.414;13.226;2023-04-24T11:42:56;17.20;71.70
64209;DHT22;50527;52.414;13.226;2023-04-24T11:45:26;17.20;71.90
64209;DHT22;50527;52.414;13.226;2023-04-24T11:47:52;17.30;72.00
64209;DHT22;50527;52.414;13.226;2023-04-24T11:50:21;17.30;71.60
64209;DHT22;50527;52.414;13.226;2023-04-24T11:52:48;17.30;71.30
64209;DHT22;50527;52.414;13.226;2023-04-24T11:57:41;17.40;71.60
64209;DHT22;50527;52.414;13.226;2023-04-24T12:00:22;17.50;71.80
64209;DHT22;50527;52.414;13.226;2023-04-24T12:02:48;17.90;67.60
64209;DHT22;50527;52.414;13.226;2023-04-24T12:05:25;18.30;64.20
64209;DHT22;50527;52.414;13.226;2023-04-24T12:07:52;18.70;58.60
64209;DHT22;50527;52.414;13.226;2023-04-24T12:10:26;19.10;54.10
64209;DHT22;50527;52.414;13.226;2023-04-24T12:12:53;19.30;52.70
64209;DHT22;50527;52.414;13.226;2023-04-24T12:15:22;19.50;50.60
64209;DHT22;50527;52.414;13.226;2023-04-24T12:17:51;19.40;48.90
64209;DHT22;50527;52.414;13.226;2023-04-24T12:20:17;19.00;49.10
64209;DHT22;50527;52.414;13.226;2023-04-24T12:25:13;19.50;48.20
64209;DHT22;50527;52.414;13.226;2023-04-24T12:27:39;19.50;46.40
64209;DHT22;50527;52.414;13.226;2023-04-24T12:30:09;19.90;47.00
64209;DHT22;50527;52.414;13.226;2023-04-24T12:32:35;20.00;46.20
64209;DHT22;50527;52.414;13.226;2023-04-24T12:35:00;19.80;45.30
64209;DHT22;50527;52.414;13.226;2023-04-24T12:37:32;19.50;46.90
64209;DHT22;50527;52.414;13.226;2023-04-24T12:40:06;19.10;46.40
64209;DHT22;50527;52.414;13.226;2023-04-24T12:42:37;19.30;48.40
64209;DHT22;50527;52.414;13.226;2023-04-24T12:45:07;19.60;46.90
64209;DHT22;50527;52.414;13.226;2023-04-24T12:47:33;19.60;45.40
64209;DHT22;50527;52.414;13.226;2023-04-24T12:49:59;19.80;47.00
64209;DHT22;50527;52.414;13.226;2023-04-24T12:52:28;19.90;46.80
64209;DHT22;50527;52.414;13.226;2023-04-24T12:54:56;19.60;45.20
64209;DHT22;50527;52.414;13.226;2023-04-24T12:57:22;19.40;47.50
64209;DHT22;50527;52.414;13.226;2023-04-24T12:59:48;19.40;46.60
64209;DHT22;50527;52.414;13.226;2023-04-24T13:02:14;19.40;47.20
64209;DHT22;50527;52.414;13.226;2023-04-24T13:04:45;19.30;45.00
64209;DHT22;50527;52.414;13.226;2023-04-24T13:07:12;19.30;45.40
64209;DHT22;50527;52.414;13.226;2023-04-24T13:09:39;19.40;46.70
64209;DHT22;50527;52.414;13.226;2023-04-24T13:12:05;19.60;45.50
64209;DHT22;50527;52.414;13.226;2023-04-24T13:14:33;19.70;44.40
64209;DHT22;50527;52.414;13.226;2023-04-24T13:16:59;19.70;44.00
64209;DHT22;50527;52.414;13.226;2023-04-24T13:19:26;19.80;45.90
64209;DHT22;50527;52.414;13.226;2023-04-24T13:21:56;19.80;44.60
64209;DHT22;50527;52.414;13.226;2023-04-24T13:24:22;19.70;44.40
64209;DHT22;50527;52.414;13.226;2023-04-24T13:26:54;19.60;44.60
64209;DHT22;50527;52.414;13.226;2023-04-24T13:29:19;19.50;44.60
64209;DHT22;50527;52.414;13.226;2023-04-24T13:31:46;19.30;43.50
64209;DHT22;50527;52.414;13.226;2023-04-24T13:34:13;19.00;44.20
64209;DHT22;50527;52.414;13.226;2023-04-24T13:36:38;18.80;43.90
64209;DHT22;50527;52.414;13.226;2023-04-24T13:39:05;18.80;44.90
64209;DHT22;50527;52.414;13.226;2023-04-24T13:41:31;18.70;44.90
64209;DHT22;50527;52.414;13.226;2023-04-24T13:43:57;18.50;43.90
64209;DHT22;50527;52.414;13.226;2023-04-24T13:46:22;18.30;45.30
64209;DHT22;50527;52.414;13.226;2023-04-24T13:48:48;18.30;45.80
64209;DHT22;50527;52.414;13.226;2023-04-24T13:51:13;18.20;45.30
64209;DHT22;50527;52.414;13.226;2023-04-24T13:53:39;18.50;45.70
64209;DHT22;50527;52.414;13.226;2023-04-24T13:56:05;18.70;45.00
64209;DHT22;50527;52.414;13.226;2023-04-24T13:58:34;18.90;43.60
64209;DHT22;50527;52.414;13.226;2023-04-24T14:01:02;19.20;44.90
64209;DHT22;50527;52.414;13.226;2023-04-24T14:03:28;19.30;42.80
64209;DHT22;50527;52.414;13.226;2023-04-24T14:05:54;19.20;43.00
64209;DHT22;50527;52.414;13.226;2023-04-24T14:08:19;19.00;44.40
64209;DHT22;50527;52.414;13.226;2023-04-24T14:10:45;18.80;44.20
64209;DHT22;50527;52.414;13.226;2023-04-24T14:13:10;18.70;44.50
64209;DHT22;50527;52.414;13.226;2023-04-24T14:15:36;18.70;44.20
64209;DHT22;50527;52.414;13.226;2023-04-24T14:18:02;18.60;45.30
64209;DHT22;50527;52.414;13.226;2023-04-24T14:20:28;18.40;45.50
64209;DHT22;50527;52.414;13.226;2023-04-24T14:22:53;18.20;44.60
64209;DHT22;50527;52.414;13.226;2023-04-24T14:25:19;18.20;45.90
64209;DHT22;50527;52.414;13.226;2023-04-24T14:27:44;18.20;45.40
64209;DHT22;50527;52.414;13.226;2023-04-24T14:30:11;18.30;45.10
64209;DHT22;50527;52.414;13.226;2023-04-24T14:32:38;18.30;44.60
64209;DHT22;50527;52.414;13.226;2023-04-24T14:35:05;18.30;45.20
64209;DHT22;50527;52.414;13.226;2023-04-24T14:37:31;18.30;45.20
64209;DHT22;50527;52.414;13.226;2023-04-24T14:39:57;18.40;45.60
64209;DHT22;50527;52.414;13.226;2023-04-24T14:42:22;18.40;45.40
64209;DHT22;50527;52.414;13.226;2023-04-24T14:44:48;18.40;45.80
64209;DHT22;50527;52.414;13.226;2023-04-24T14:47:13;18.10;45.00
64209;DHT22;50527;52.414;13.226;2023-04-24T14:49:39;17.90;45.80
64209;DHT22;50527;52.414;13.226;2023-04-24T14:52:04;17.90;46.10
64209;DHT22;50527;52.414;13.226;2023-04-24T14:54:30;17.90;45.70
64209;DHT22;50527;52.414;13.226;2023-04-24T14:56:56;18.10;46.10
64209;DHT22;50527;52.414;13.226;2023-04-24T14:59:24;18.20;46.80
64209;DHT22;50527;52.414;13.226;2023-04-24T15:01:49;18.30;45.50
64209;DHT22;50527;52.414;13.226;2023-04-24T15:04:16;18.30;45.00
64209;DHT22;50527;52.414;13.226;2023-04-24T15:06:41;18.10;45.00
64209;DHT22;50527;52.414;13.226;2023-04-24T15:09:07;17.80;45.20
64209;DHT22;50527;52.414;13.226;2023-04-24T15:11:33;17.60;46.00
64209;DHT22;50527;52.414;13.226;2023-04-24T15:13:58;17.40;46.60
64209;DHT22;50527;52.414;13.226;2023-04-24T15:16:24;17.30;47.30
64209;DHT22;50527;52.414;13.226;2023-04-24T15:18:50;17.20;47.50